PWSweather.com
Personal Weather Stations
Station Observations
HELOTES
Helotes Park Terrace, Helotes, TX 78023

Helotes Park TerraceHelotes, TX 78023

Lat: 29.57, Lon: -98.68

Elevation: 1060

Station Type: Ambient Weather WS-1090

Latest ConditionsUpdated 6:49:06 PM CDT Wednesday, Oct 22, 2014
Currently Today's Max Today's Min Today's Average
Temperature 77.8°F25.4°C 81.2°F27.3°C 61.6°F16.4°C 71.1°F21.7°C
Dew Point 58.2°F14.6°C 61.8°F16.6°C 50.4°F10.2°C 56.0°F13.3°C
Winds 1.1 mph NE1.8 kmh NE 10.2 mph NE16.4 kmh NE - 3.2 mph 5.1 kmh
Wind Gusts 1.1 mph1.8 kmh 14.3 mph23.0 kmh - -
Humidity 51% 74% 48% 60%
Pressure 29.97 in1014.9 mb 30.05 in1017.6 mb 29.94 in1013.9 mb -
Hour Temp Dew Point Humidity Winds Wind Gusts Pressure Precip Precip Rate Daily Precip Total
06:49 PM 77.8°F25.4°C 58.2°F14.6°C 51% 1.1 mph NE1.8 kmh NE 1.1 mph1.8 kmh 29.97 in1014.9 mb 0.00 in0.0 mm 0.00 in/hr0.0 mm/hr 0.00 in0.0 mm
06:44 PM 77.8°F25.4°C 58.2°F14.6°C 51% 0.6 mph NE1.0 kmh NE 1.1 mph1.8 kmh 29.97 in1014.9 mb 0.00 in0.0 mm 0.00 in/hr0.0 mm/hr 0.00 in0.0 mm
06:39 PM 77.9°F25.5°C 57.9°F14.4°C 50% 1.1 mph NE1.8 kmh NE 2.5 mph4.0 kmh 29.97 in1014.9 mb 0.00 in0.0 mm 0.00 in/hr0.0 mm/hr 0.00 in0.0 mm
06:34 PM 78.1°F25.6°C 58.1°F14.5°C 50% 0.5 mph NNE0.8 kmh NNE 2.5 mph4.0 kmh 29.96 in1014.6 mb 0.00 in0.0 mm 0.00 in/hr0.0 mm/hr 0.00 in0.0 mm
06:29 PM 78.1°F25.6°C 58.1°F14.5°C 50% 1.6 mph NE2.6 kmh NE 2.0 mph3.2 kmh 29.96 in1014.6 mb 0.00 in0.0 mm 0.00 in/hr0.0 mm/hr 0.00 in0.0 mm
06:24 PM 78.3°F25.7°C 58.2°F14.6°C 50% 1.4 mph NE2.3 kmh NE 2.5 mph4.0 kmh 29.96 in1014.6 mb 0.00 in0.0 mm 0.00 in/hr0.0 mm/hr 0.00 in0.0 mm
06:19 PM 78.5°F25.8°C 58.3°F14.6°C 50% 2.3 mph NE3.7 kmh NE 3.1 mph5.0 kmh 29.96 in1014.6 mb 0.00 in0.0 mm 0.00 in/hr0.0 mm/hr 0.00 in0.0 mm
06:14 PM 78.5°F25.8°C 58.3°F14.6°C 50% 1.9 mph ENE3.1 kmh ENE 4.7 mph7.6 kmh 29.96 in1014.6 mb 0.00 in0.0 mm 0.00 in/hr0.0 mm/hr 0.00 in0.0 mm
06:09 PM 78.7°F25.9°C 58.5°F14.7°C 50% 2.8 mph ESE4.5 kmh ESE 4.7 mph7.6 kmh 29.95 in1014.2 mb 0.00 in0.0 mm 0.00 in/hr0.0 mm/hr 0.00 in0.0 mm
06:04 PM 78.8°F26.0°C 58.7°F14.8°C 50% 2.7 mph ESE4.3 kmh ESE 4.5 mph7.2 kmh 29.95 in1014.2 mb 0.00 in0.0 mm 0.00 in/hr0.0 mm/hr 0.00 in0.0 mm
05:59 PM 78.8°F26.0°C 58.7°F14.8°C 50% 1.6 mph N2.6 kmh N 4.5 mph7.2 kmh 29.95 in1014.2 mb 0.00 in0.0 mm 0.00 in/hr0.0 mm/hr 0.00 in0.0 mm
05:54 PM 78.8°F26.0°C 58.7°F14.8°C 50% 1.5 mph NE2.4 kmh NE 3.6 mph5.8 kmh 29.95 in1014.2 mb 0.00 in0.0 mm 0.00 in/hr0.0 mm/hr 0.00 in0.0 mm
05:49 PM 79.0°F26.1°C 58.9°F14.9°C 50% 2.3 mph ENE3.7 kmh ENE 3.6 mph5.8 kmh 29.95 in1014.2 mb 0.00 in0.0 mm 0.00 in/hr0.0 mm/hr 0.00 in0.0 mm
05:44 PM 79.2°F26.2°C 59.1°F15.1°C 50% 1.8 mph ENE2.9 kmh ENE 3.1 mph5.0 kmh 29.95 in1014.2 mb 0.00 in0.0 mm 0.00 in/hr0.0 mm/hr 0.00 in0.0 mm
05:39 PM 79.2°F26.2°C 59.1°F15.1°C 50% 1.4 mph ENE2.3 kmh ENE 3.4 mph5.5 kmh 29.95 in1014.2 mb 0.00 in0.0 mm 0.00 in/hr0.0 mm/hr 0.00 in0.0 mm
05:34 PM 79.2°F26.2°C 58.4°F14.7°C 49% 1.0 mph E1.6 kmh E 4.7 mph7.6 kmh 29.95 in1014.2 mb 0.00 in0.0 mm 0.00 in/hr0.0 mm/hr 0.00 in0.0 mm
05:29 PM 79.4°F26.3°C 58.6°F14.8°C 49% 2.6 mph E4.2 kmh E 4.7 mph7.6 kmh 29.95 in1014.2 mb 0.00 in0.0 mm 0.00 in/hr0.0 mm/hr 0.00 in0.0 mm
05:24 PM 79.6°F26.4°C 58.7°F14.8°C 49% 2.1 mph E3.4 kmh E 4.7 mph7.6 kmh 29.95 in1014.2 mb 0.00 in0.0 mm 0.00 in/hr0.0 mm/hr 0.00 in0.0 mm
05:19 PM 79.6°F26.4°C 58.7°F14.8°C 49% 3.1 mph NE5.0 kmh NE 5.1 mph8.2 kmh 29.95 in1014.2 mb 0.00 in0.0 mm 0.00 in/hr0.0 mm/hr 0.00 in0.0 mm
05:14 PM 79.7°F26.5°C 58.9°F14.9°C 49% 3.4 mph NNE5.5 kmh NNE 5.1 mph8.2 kmh 29.94 in1013.9 mb 0.00 in0.0 mm 0.00 in/hr0.0 mm/hr 0.00 in0.0 mm
05:08 PM 79.9°F26.6°C 58.4°F14.7°C 48% 2.8 mph NNE4.5 kmh NNE 3.6 mph5.8 kmh 29.95 in1014.2 mb 0.00 in0.0 mm 0.00 in/hr0.0 mm/hr 0.00 in0.0 mm
05:04 PM 80.1°F26.7°C 58.6°F14.8°C 48% 1.6 mph E2.6 kmh E 4.9 mph7.9 kmh 29.95 in1014.2 mb 0.00 in0.0 mm 0.00 in/hr0.0 mm/hr 0.00 in0.0 mm
04:59 PM 80.3°F26.8°C 58.8°F14.9°C 48% 3.4 mph E5.5 kmh E 7.4 mph11.9 kmh 29.95 in1014.2 mb 0.00 in0.0 mm 0.00 in/hr0.0 mm/hr 0.00 in0.0 mm
04:54 PM 80.5°F26.9°C 59.0°F15.0°C 48% 4.9 mph ENE7.9 kmh ENE 7.6 mph12.2 kmh 29.94 in1013.9 mb 0.00 in0.0 mm 0.00 in/hr0.0 mm/hr 0.00 in0.0 mm
04:48 PM 80.6°F27.0°C 59.0°F15.0°C 48% 5.1 mph NE8.2 kmh NE 7.6 mph12.2 kmh 29.94 in1013.9 mb 0.00 in0.0 mm 0.00 in/hr0.0 mm/hr 0.00 in0.0 mm
04:44 PM 80.6°F27.0°C 59.0°F15.0°C 48% 6.2 mph NE10.0 kmh NE 7.2 mph11.6 kmh 29.94 in1013.9 mb 0.00 in0.0 mm 0.00 in/hr0.0 mm/hr 0.00 in0.0 mm
04:39 PM 80.6°F27.0°C 59.0°F15.0°C 48% 5.1 mph E8.2 kmh E 6.3 mph10.1 kmh 29.95 in1014.2 mb 0.00 in0.0 mm 0.00 in/hr0.0 mm/hr 0.00 in0.0 mm
04:34 PM 80.5°F26.9°C 59.0°F15.0°C 48% 3.4 mph E5.5 kmh E 7.4 mph11.9 kmh 29.95 in1014.2 mb 0.00 in0.0 mm 0.00 in/hr0.0 mm/hr 0.00 in0.0 mm
04:28 PM 80.6°F27.0°C 59.0°F15.0°C 48% 4.4 mph NNE7.1 kmh NNE 7.4 mph11.9 kmh 29.95 in1014.2 mb 0.00 in0.0 mm 0.00 in/hr0.0 mm/hr 0.00 in0.0 mm
04:24 PM 80.5°F26.9°C 59.0°F15.0°C 48% 5.6 mph E9.0 kmh E 7.4 mph11.9 kmh 29.95 in1014.2 mb 0.00 in0.0 mm 0.00 in/hr0.0 mm/hr 0.00 in0.0 mm
04:19 PM 80.5°F26.9°C 59.5°F15.3°C 49% 4.4 mph E7.1 kmh E 6.9 mph11.1 kmh 29.95 in1014.2 mb 0.00 in0.0 mm 0.00 in/hr0.0 mm/hr 0.00 in0.0 mm
04:13 PM 80.6°F27.0°C 59.7°F15.4°C 49% 5.4 mph ENE8.7 kmh ENE 6.7 mph10.8 kmh 29.95 in1014.2 mb 0.00 in0.0 mm 0.00 in/hr0.0 mm/hr 0.00 in0.0 mm
04:08 PM 80.6°F27.0°C 59.7°F15.4°C 49% 5.2 mph NE8.4 kmh NE 6.7 mph10.8 kmh 29.95 in1014.2 mb 0.00 in0.0 mm 0.00 in/hr0.0 mm/hr 0.00 in0.0 mm
04:03 PM 80.6°F27.0°C 59.7°F15.4°C 49% 3.9 mph E6.3 kmh E 5.4 mph8.7 kmh 29.95 in1014.2 mb 0.00 in0.0 mm 0.00 in/hr0.0 mm/hr 0.00 in0.0 mm
03:59 PM 80.6°F27.0°C 59.7°F15.4°C 49% 3.6 mph ENE5.8 kmh ENE 6.5 mph10.5 kmh 29.95 in1014.2 mb 0.00 in0.0 mm 0.00 in/hr0.0 mm/hr 0.00 in0.0 mm
03:53 PM 80.6°F27.0°C 60.3°F15.7°C 50% 4.7 mph E7.6 kmh E 6.5 mph10.5 kmh 29.95 in1014.2 mb 0.00 in0.0 mm 0.00 in/hr0.0 mm/hr 0.00 in0.0 mm
03:48 PM 80.6°F27.0°C 60.3°F15.7°C 50% 3.4 mph NE5.5 kmh NE 4.9 mph7.9 kmh 29.95 in1014.2 mb 0.00 in0.0 mm 0.00 in/hr0.0 mm/hr 0.00 in0.0 mm
03:43 PM 80.6°F27.0°C 60.3°F15.7°C 50% 4.6 mph ESE7.4 kmh ESE 7.6 mph12.2 kmh 29.95 in1014.2 mb 0.00 in0.0 mm 0.00 in/hr0.0 mm/hr 0.00 in0.0 mm
03:38 PM 80.6°F27.0°C 60.3°F15.7°C 50% 5.1 mph NE8.2 kmh NE 7.6 mph12.2 kmh 29.95 in1014.2 mb 0.00 in0.0 mm 0.00 in/hr0.0 mm/hr 0.00 in0.0 mm
03:33 PM 80.5°F26.9°C 60.1°F15.6°C 50% 5.9 mph NE9.5 kmh NE 6.3 mph10.1 kmh 29.96 in1014.6 mb 0.00 in0.0 mm 0.00 in/hr0.0 mm/hr 0.00 in0.0 mm
03:28 PM 80.6°F27.0°C 60.3°F15.7°C 50% 3.8 mph E6.1 kmh E 5.4 mph8.7 kmh 29.95 in1014.2 mb 0.00 in0.0 mm 0.00 in/hr0.0 mm/hr 0.00 in0.0 mm
03:23 PM 80.6°F27.0°C 60.3°F15.7°C 50% 4.5 mph E7.2 kmh E 5.4 mph8.7 kmh 29.95 in1014.2 mb 0.00 in0.0 mm 0.00 in/hr0.0 mm/hr 0.00 in0.0 mm
03:18 PM 80.6°F27.0°C 59.7°F15.4°C 49% 3.8 mph NNE6.1 kmh NNE 5.1 mph8.2 kmh 29.96 in1014.6 mb 0.00 in0.0 mm 0.00 in/hr0.0 mm/hr 0.00 in0.0 mm
03:13 PM 80.6°F27.0°C 59.7°F15.4°C 49% 4.1 mph NNE6.6 kmh NNE 7.6 mph12.2 kmh 29.96 in1014.6 mb 0.00 in0.0 mm 0.00 in/hr0.0 mm/hr 0.00 in0.0 mm
03:08 PM 80.6°F27.0°C 59.7°F15.4°C 49% 6.6 mph N10.6 kmh N 7.6 mph12.2 kmh 29.96 in1014.6 mb 0.00 in0.0 mm 0.00 in/hr0.0 mm/hr 0.00 in0.0 mm
03:03 PM 80.6°F27.0°C 59.7°F15.4°C 49% 2.6 mph E4.2 kmh E 6.7 mph10.8 kmh 29.96 in1014.6 mb 0.00 in0.0 mm 0.00 in/hr0.0 mm/hr 0.00 in0.0 mm
02:58 PM 80.8°F27.1°C 60.5°F15.8°C 50% 2.9 mph E4.7 kmh E 6.7 mph10.8 kmh 29.96 in1014.6 mb 0.00 in0.0 mm 0.00 in/hr0.0 mm/hr 0.00 in0.0 mm
02:53 PM 80.8°F27.1°C 59.9°F15.5°C 49% 1.7 mph ENE2.7 kmh ENE 5.6 mph9.0 kmh 29.97 in1014.9 mb 0.00 in0.0 mm 0.00 in/hr0.0 mm/hr 0.00 in0.0 mm
02:48 PM 80.8°F27.1°C 59.9°F15.5°C 49% 3.7 mph ENE6.0 kmh ENE 6.3 mph10.1 kmh 29.97 in1014.9 mb 0.00 in0.0 mm 0.00 in/hr0.0 mm/hr 0.00 in0.0 mm
02:43 PM 81.0°F27.2°C 60.0°F15.6°C 49% 2.6 mph NNE4.2 kmh NNE 7.8 mph12.6 kmh 29.97 in1014.9 mb 0.00 in0.0 mm 0.00 in/hr0.0 mm/hr 0.00 in0.0 mm
02:38 PM 81.0°F27.2°C 59.4°F15.2°C 48% 5.9 mph NNE9.5 kmh NNE 10.5 mph16.9 kmh 29.97 in1014.9 mb 0.00 in0.0 mm 0.00 in/hr0.0 mm/hr 0.00 in0.0 mm
02:33 PM 81.2°F27.3°C 60.2°F15.7°C 49% 5.3 mph NNE8.5 kmh NNE 10.5 mph16.9 kmh 29.97 in1014.9 mb 0.00 in0.0 mm 0.00 in/hr0.0 mm/hr 0.00 in0.0 mm
02:28 PM 81.2°F27.3°C 60.2°F15.7°C 49% 4.5 mph ESE7.2 kmh ESE 8.7 mph14.0 kmh 29.97 in1014.9 mb 0.00 in0.0 mm 0.00 in/hr0.0 mm/hr 0.00 in0.0 mm
02:23 PM 81.2°F27.3°C 60.2°F15.7°C 49% 4.4 mph E7.1 kmh E 8.5 mph13.7 kmh 29.97 in1014.9 mb 0.00 in0.0 mm 0.00 in/hr0.0 mm/hr 0.00 in0.0 mm
02:18 PM 81.0°F27.2°C 60.7°F15.9°C 50% 6.4 mph NNE10.3 kmh NNE 7.6 mph12.2 kmh 29.97 in1014.9 mb 0.00 in0.0 mm 0.00 in/hr0.0 mm/hr 0.00 in0.0 mm
02:13 PM 80.8°F27.1°C 60.5°F15.8°C 50% 3.8 mph E6.1 kmh E 7.6 mph12.2 kmh 29.97 in1014.9 mb 0.00 in0.0 mm 0.00 in/hr0.0 mm/hr 0.00 in0.0 mm
02:08 PM 80.8°F27.1°C 60.5°F15.8°C 50% 2.0 mph NNE3.2 kmh NNE 13.4 mph21.6 kmh 29.98 in1015.2 mb 0.00 in0.0 mm 0.00 in/hr0.0 mm/hr 0.00 in0.0 mm
02:03 PM 80.8°F27.1°C 60.5°F15.8°C 50% 4.1 mph NE6.6 kmh NE 13.4 mph21.6 kmh 29.98 in1015.2 mb 0.00 in0.0 mm 0.00 in/hr0.0 mm/hr 0.00 in0.0 mm
01:58 PM 80.8°F27.1°C 60.5°F15.8°C 50% 6.5 mph ENE10.5 kmh ENE 8.5 mph13.7 kmh 29.98 in1015.2 mb 0.00 in0.0 mm 0.00 in/hr0.0 mm/hr 0.00 in0.0 mm
01:53 PM 80.8°F27.1°C 60.5°F15.8°C 50% 5.3 mph NE8.5 kmh NE 8.5 mph13.7 kmh 29.98 in1015.2 mb 0.00 in0.0 mm 0.00 in/hr0.0 mm/hr 0.00 in0.0 mm
01:48 PM 81.0°F27.2°C 60.7°F15.9°C 50% 3.7 mph N6.0 kmh N 5.8 mph9.3 kmh 29.99 in1015.6 mb 0.00 in0.0 mm 0.00 in/hr0.0 mm/hr 0.00 in0.0 mm
01:43 PM 80.8°F27.1°C 60.5°F15.8°C 50% 4.3 mph E6.9 kmh E 9.4 mph15.1 kmh 29.99 in1015.6 mb 0.00 in0.0 mm 0.00 in/hr0.0 mm/hr 0.00 in0.0 mm
01:38 PM 80.3°F26.8°C 59.9°F15.5°C 50% 6.2 mph E10.0 kmh E 9.4 mph15.1 kmh 29.99 in1015.6 mb 0.00 in0.0 mm 0.00 in/hr0.0 mm/hr 0.00 in0.0 mm
01:33 PM 79.9°F26.6°C 60.2°F15.7°C 51% 4.8 mph NE7.7 kmh NE 6.7 mph10.8 kmh 30.00 in1015.9 mb 0.00 in0.0 mm 0.00 in/hr0.0 mm/hr 0.00 in0.0 mm
01:28 PM 79.6°F26.4°C 60.4°F15.8°C 52% 4.9 mph E7.9 kmh E 6.5 mph10.5 kmh 30.00 in1015.9 mb 0.00 in0.0 mm 0.00 in/hr0.0 mm/hr 0.00 in0.0 mm
01:23 PM 79.2°F26.2°C 60.0°F15.6°C 52% 5.3 mph N8.5 kmh N 8.5 mph13.7 kmh 30.00 in1015.9 mb 0.00 in0.0 mm 0.00 in/hr0.0 mm/hr 0.00 in0.0 mm
01:18 PM 78.8°F26.0°C 59.8°F15.4°C 52% 7.0 mph E11.3 kmh E 8.5 mph13.7 kmh 30.01 in1016.3 mb 0.00 in0.0 mm 0.00 in/hr0.0 mm/hr 0.00 in0.0 mm
01:13 PM 78.8°F26.0°C 59.8°F15.4°C 52% 5.4 mph E8.7 kmh E 8.9 mph14.3 kmh 30.01 in1016.3 mb 0.00 in0.0 mm 0.00 in/hr0.0 mm/hr 0.00 in0.0 mm
01:08 PM 78.8°F26.0°C 59.8°F15.4°C 52% 6.1 mph ENE9.8 kmh ENE 10.1 mph16.3 kmh 30.02 in1016.6 mb 0.00 in0.0 mm 0.00 in/hr0.0 mm/hr 0.00 in0.0 mm
01:03 PM 78.8°F26.0°C 59.8°F15.4°C 52% 6.6 mph NNE10.6 kmh NNE 10.1 mph16.3 kmh 30.02 in1016.6 mb 0.00 in0.0 mm 0.00 in/hr0.0 mm/hr 0.00 in0.0 mm
12:58 PM 78.8°F26.0°C 59.8°F15.4°C 52% 6.9 mph SE11.1 kmh SE 9.4 mph15.1 kmh 30.02 in1016.6 mb 0.00 in0.0 mm 0.00 in/hr0.0 mm/hr 0.00 in0.0 mm
12:53 PM 79.0°F26.1°C 60.4°F15.8°C 53% 3.4 mph E5.5 kmh E 9.4 mph15.1 kmh 30.02 in1016.6 mb 0.00 in0.0 mm 0.00 in/hr0.0 mm/hr 0.00 in0.0 mm
12:48 PM 79.0°F26.1°C 60.9°F16.1°C 54% 3.7 mph NE6.0 kmh NE 6.7 mph10.8 kmh 30.02 in1016.6 mb 0.00 in0.0 mm 0.00 in/hr0.0 mm/hr 0.00 in0.0 mm
12:43 PM 78.8°F26.0°C 60.8°F16.0°C 54% 3.4 mph ESE5.5 kmh ESE 8.5 mph13.7 kmh 30.02 in1016.6 mb 0.00 in0.0 mm 0.00 in/hr0.0 mm/hr 0.00 in0.0 mm
12:38 PM 78.1°F25.6°C 61.1°F16.2°C 56% 6.7 mph NE10.8 kmh NE 8.5 mph13.7 kmh 30.02 in1016.6 mb 0.00 in0.0 mm 0.00 in/hr0.0 mm/hr 0.00 in0.0 mm
12:33 PM 77.6°F25.3°C 60.6°F15.9°C 56% 4.0 mph NNE6.4 kmh NNE 9.2 mph14.8 kmh 30.02 in1016.6 mb 0.00 in0.0 mm 0.00 in/hr0.0 mm/hr 0.00 in0.0 mm
12:28 PM 77.0°F25.0°C 60.6°F15.9°C 57% 7.4 mph NE11.9 kmh NE 9.2 mph14.8 kmh 30.02 in1016.6 mb 0.00 in0.0 mm 0.00 in/hr0.0 mm/hr 0.00 in0.0 mm
12:23 PM 77.0°F25.0°C 60.6°F15.9°C 57% 5.7 mph 9.2 kmh 11.2 mph18.0 kmh 30.03 in1016.9 mb 0.00 in0.0 mm 0.00 in/hr0.0 mm/hr 0.00 in0.0 mm
12:18 PM 76.9°F24.9°C 60.9°F16.1°C 58% 6.7 mph NE10.8 kmh NE 11.2 mph18.0 kmh 30.03 in1016.9 mb 0.00 in0.0 mm 0.00 in/hr0.0 mm/hr 0.00 in0.0 mm
12:13 PM 76.7°F24.8°C 60.8°F16.0°C 58% 10.2 mph NE16.4 kmh NE 11.2 mph18.0 kmh 30.03 in1016.9 mb 0.00 in0.0 mm 0.00 in/hr0.0 mm/hr 0.00 in0.0 mm
12:08 PM 76.7°F24.8°C 61.3°F16.3°C 59% 6.7 mph NE10.8 kmh NE 10.3 mph16.6 kmh 30.03 in1016.9 mb 0.00 in0.0 mm 0.00 in/hr0.0 mm/hr 0.00 in0.0 mm
12:03 PM 76.5°F24.7°C 61.7°F16.5°C 60% 5.4 mph NE8.7 kmh NE 10.3 mph16.6 kmh 30.03 in1016.9 mb 0.00 in0.0 mm 0.00 in/hr0.0 mm/hr 0.00 in0.0 mm
11:58 AM 76.1°F24.5°C 61.8°F16.6°C 61% 6.7 mph NNE10.8 kmh NNE 9.2 mph14.8 kmh 30.03 in1016.9 mb 0.00 in0.0 mm 0.00 in/hr0.0 mm/hr 0.00 in0.0 mm
11:53 AM 75.8°F24.3°C 61.4°F16.3°C 61% 7.9 mph NE12.7 kmh NE 9.2 mph14.8 kmh 30.03 in1016.9 mb 0.00 in0.0 mm 0.00 in/hr0.0 mm/hr 0.00 in0.0 mm
11:48 AM 75.6°F24.2°C 61.2°F16.2°C 61% 5.0 mph ENE8.0 kmh ENE 10.5 mph16.9 kmh 30.04 in1017.3 mb 0.00 in0.0 mm 0.00 in/hr0.0 mm/hr 0.00 in0.0 mm
11:43 AM 75.1°F23.9°C 61.2°F16.2°C 62% 8.3 mph NNE13.4 kmh NNE 10.5 mph16.9 kmh 30.04 in1017.3 mb 0.00 in0.0 mm 0.00 in/hr0.0 mm/hr 0.00 in0.0 mm
11:38 AM 75.1°F23.9°C 61.2°F16.2°C 62% 5.1 mph N8.2 kmh N 8.3 mph13.4 kmh 30.04 in1017.3 mb 0.00 in0.0 mm 0.00 in/hr0.0 mm/hr 0.00 in0.0 mm
11:33 AM 74.9°F23.8°C 61.0°F16.1°C 62% 5.6 mph NNE9.0 kmh NNE 8.3 mph13.4 kmh 30.04 in1017.3 mb 0.00 in0.0 mm 0.00 in/hr0.0 mm/hr 0.00 in0.0 mm
11:28 AM 74.7°F23.7°C 61.3°F16.3°C 63% 4.8 mph NNE7.7 kmh NNE 9.2 mph14.8 kmh 30.04 in1017.3 mb 0.00 in0.0 mm 0.00 in/hr0.0 mm/hr 0.00 in0.0 mm
11:23 AM 74.5°F23.6°C 61.1°F16.2°C 63% 7.5 mph NE12.1 kmh NE 9.2 mph14.8 kmh 30.04 in1017.3 mb 0.00 in0.0 mm 0.00 in/hr0.0 mm/hr 0.00 in0.0 mm
11:18 AM 74.3°F23.5°C 61.4°F16.3°C 64% 5.5 mph NNE8.9 kmh NNE 8.5 mph13.7 kmh 30.05 in1017.6 mb 0.00 in0.0 mm 0.00 in/hr0.0 mm/hr 0.00 in0.0 mm
11:13 AM 74.2°F23.4°C 61.2°F16.2°C 64% 6.0 mph NE9.7 kmh NE 8.5 mph13.7 kmh 30.05 in1017.6 mb 0.00 in0.0 mm 0.00 in/hr0.0 mm/hr 0.00 in0.0 mm
11:08 AM 73.8°F23.2°C 61.3°F16.3°C 65% 6.8 mph ENE10.9 kmh ENE 6.9 mph11.1 kmh 30.04 in1017.3 mb 0.00 in0.0 mm 0.00 in/hr0.0 mm/hr 0.00 in0.0 mm
11:03 AM 73.1°F22.8°C 61.0°F16.1°C 66% 3.8 mph 6.1 kmh 7.8 mph12.6 kmh 30.04 in1017.3 mb 0.00 in0.0 mm 0.00 in/hr0.0 mm/hr 0.00 in0.0 mm
10:58 AM 72.9°F22.7°C 60.8°F16.0°C 66% 2.9 mph ENE4.7 kmh ENE 7.8 mph12.6 kmh 30.04 in1017.3 mb 0.00 in0.0 mm 0.00 in/hr0.0 mm/hr 0.00 in0.0 mm
10:53 AM 72.5°F22.5°C 60.9°F16.1°C 67% 5.7 mph NE9.2 kmh NE 14.3 mph23.0 kmh 30.04 in1017.3 mb 0.00 in0.0 mm 0.00 in/hr0.0 mm/hr 0.00 in0.0 mm
10:48 AM 72.2°F22.3°C 60.6°F15.9°C 67% 4.4 mph NE7.1 kmh NE 14.3 mph23.0 kmh 30.04 in1017.3 mb 0.00 in0.0 mm 0.00 in/hr0.0 mm/hr 0.00 in0.0 mm
10:43 AM 72.0°F22.2°C 60.4°F15.8°C 67% 9.5 mph ENE15.3 kmh ENE 11.4 mph18.3 kmh 30.04 in1017.3 mb 0.00 in0.0 mm 0.00 in/hr0.0 mm/hr 0.00 in0.0 mm
10:38 AM 71.6°F22.0°C 60.5°F15.8°C 68% 9.0 mph NE14.5 kmh NE 11.4 mph18.3 kmh 30.04 in1017.3 mb 0.00 in0.0 mm 0.00 in/hr0.0 mm/hr 0.00 in0.0 mm
10:33 AM 71.5°F21.9°C 60.0°F15.6°C 67% 5.6 mph N9.0 kmh N 9.2 mph14.8 kmh 30.04 in1017.3 mb 0.00 in0.0 mm 0.00 in/hr0.0 mm/hr 0.00 in0.0 mm
10:28 AM 71.1°F21.7°C 60.0°F15.6°C 68% 6.1 mph ENE9.8 kmh ENE 9.6 mph15.4 kmh 30.04 in1017.3 mb 0.00 in0.0 mm 0.00 in/hr0.0 mm/hr 0.00 in0.0 mm
10:23 AM 70.9°F21.6°C 59.9°F15.5°C 68% 6.8 mph NE10.9 kmh NE 9.6 mph15.4 kmh 30.04 in1017.3 mb 0.00 in0.0 mm 0.00 in/hr0.0 mm/hr 0.00 in0.0 mm
10:18 AM 70.6°F21.4°C 59.9°F15.5°C 69% 5.3 mph NE8.5 kmh NE 9.4 mph15.1 kmh 30.04 in1017.3 mb 0.00 in0.0 mm 0.00 in/hr0.0 mm/hr 0.00 in0.0 mm
10:13 AM 70.2°F21.2°C 59.5°F15.3°C 69% 6.5 mph NE10.5 kmh NE 9.8 mph15.8 kmh 30.04 in1017.3 mb 0.00 in0.0 mm 0.00 in/hr0.0 mm/hr 0.00 in0.0 mm
10:08 AM 69.8°F21.0°C 59.6°F15.3°C 70% 4.9 mph NNE7.9 kmh NNE 9.8 mph15.8 kmh 30.04 in1017.3 mb 0.00 in0.0 mm 0.00 in/hr0.0 mm/hr 0.00 in0.0 mm
10:03 AM 69.3°F20.7°C 59.1°F15.1°C 70% 7.5 mph NE12.1 kmh NE 9.2 mph14.8 kmh 30.03 in1016.9 mb 0.00 in0.0 mm 0.00 in/hr0.0 mm/hr 0.00 in0.0 mm
09:58 AM 68.8°F20.4°C 59.0°F15.0°C 71% 4.3 mph NE6.9 kmh NE 8.5 mph13.7 kmh 30.03 in1016.9 mb 0.00 in0.0 mm 0.00 in/hr0.0 mm/hr 0.00 in0.0 mm
09:53 AM 68.4°F20.2°C 58.7°F14.8°C 71% 5.3 mph NNE8.5 kmh NNE 9.2 mph14.8 kmh 30.03 in1016.9 mb 0.00 in0.0 mm 0.00 in/hr0.0 mm/hr 0.00 in0.0 mm
09:48 AM 67.7°F19.8°C 58.3°F14.6°C 72% 5.9 mph NNE9.5 kmh NNE 9.2 mph14.8 kmh 30.03 in1016.9 mb 0.00 in0.0 mm 0.00 in/hr0.0 mm/hr 0.00 in0.0 mm
09:43 AM 67.3°F19.6°C 58.0°F14.4°C 72% 3.7 mph N6.0 kmh N 9.4 mph15.1 kmh 30.03 in1016.9 mb 0.00 in0.0 mm 0.00 in/hr0.0 mm/hr 0.00 in0.0 mm
09:38 AM 66.6°F19.2°C 57.2°F14.0°C 72% 5.7 mph N9.2 kmh N 9.4 mph15.1 kmh 30.03 in1016.9 mb 0.00 in0.0 mm 0.00 in/hr0.0 mm/hr 0.00 in0.0 mm
09:33 AM 65.9°F18.8°C 57.0°F13.9°C 73% 4.6 mph NNE7.4 kmh NNE 7.2 mph11.6 kmh 30.03 in1016.9 mb 0.00 in0.0 mm 0.00 in/hr0.0 mm/hr 0.00 in0.0 mm
09:28 AM 65.3°F18.5°C 56.4°F13.6°C 73% 4.6 mph N7.4 kmh N 8.3 mph13.4 kmh 30.03 in1016.9 mb 0.00 in0.0 mm 0.00 in/hr0.0 mm/hr 0.00 in0.0 mm
09:23 AM 64.6°F18.1°C 55.8°F13.2°C 73% 7.0 mph NNE11.3 kmh NNE 8.3 mph13.4 kmh 30.02 in1016.6 mb 0.00 in0.0 mm 0.00 in/hr0.0 mm/hr 0.00 in0.0 mm
09:18 AM 63.9°F17.7°C 55.4°F13.0°C 74% 5.2 mph NNE8.4 kmh NNE 6.7 mph10.8 kmh 30.02 in1016.6 mb 0.00 in0.0 mm 0.00 in/hr0.0 mm/hr 0.00 in0.0 mm
09:13 AM 63.2°F17.3°C 54.7°F12.6°C 74% 2.4 mph NNE3.9 kmh NNE 6.0 mph9.7 kmh 30.02 in1016.6 mb 0.00 in0.0 mm 0.00 in/hr0.0 mm/hr 0.00 in0.0 mm
09:08 AM 62.6°F17.0°C 53.5°F11.9°C 72% 2.0 mph NNE3.2 kmh NNE 5.4 mph8.7 kmh 30.02 in1016.6 mb 0.00 in0.0 mm 0.00 in/hr0.0 mm/hr 0.00 in0.0 mm
09:03 AM 62.3°F16.8°C 53.1°F11.7°C 72% 3.5 mph N5.6 kmh N 4.0 mph6.4 kmh 30.02 in1016.6 mb 0.00 in0.0 mm 0.00 in/hr0.0 mm/hr 0.00 in0.0 mm
08:58 AM 61.9°F16.6°C 52.1°F11.2°C 70% 2.1 mph N3.4 kmh N 2.9 mph4.7 kmh 30.02 in1016.6 mb 0.00 in0.0 mm 0.00 in/hr0.0 mm/hr 0.00 in0.0 mm
08:53 AM 61.7°F16.5°C 51.9°F11.1°C 70% 0.4 mph NNE0.6 kmh NNE 1.3 mph2.1 kmh 30.02 in1016.6 mb 0.00 in0.0 mm 0.00 in/hr0.0 mm/hr 0.00 in0.0 mm
08:48 AM 61.7°F16.5°C 51.5°F10.8°C 69% 0.7 mph NNE1.1 kmh NNE 1.8 mph2.9 kmh 30.02 in1016.6 mb 0.00 in0.0 mm 0.00 in/hr0.0 mm/hr 0.00 in0.0 mm
08:43 AM 61.6°F16.4°C 51.4°F10.8°C 69% 0.8 mph NW1.3 kmh NW 1.8 mph2.9 kmh 30.02 in1016.6 mb 0.00 in0.0 mm 0.00 in/hr0.0 mm/hr 0.00 in0.0 mm
08:38 AM 61.7°F16.5°C 51.5°F10.8°C 69% 1.6 mph W2.6 kmh W 2.2 mph3.5 kmh 30.02 in1016.6 mb 0.00 in0.0 mm 0.00 in/hr0.0 mm/hr 0.00 in0.0 mm
08:33 AM 61.9°F16.6°C 51.7°F10.9°C 69% 1.7 mph WSW2.7 kmh WSW 2.9 mph4.7 kmh 30.02 in1016.6 mb 0.00 in0.0 mm 0.00 in/hr0.0 mm/hr 0.00 in0.0 mm
08:28 AM 62.1°F16.7°C 51.8°F11.0°C 69% 2.2 mph W3.5 kmh W 2.9 mph4.7 kmh 30.02 in1016.6 mb 0.00 in0.0 mm 0.00 in/hr0.0 mm/hr 0.00 in0.0 mm
08:23 AM 62.1°F16.7°C 51.8°F11.0°C 69% 1.9 mph WSW3.1 kmh WSW 2.9 mph4.7 kmh 30.02 in1016.6 mb 0.00 in0.0 mm 0.00 in/hr0.0 mm/hr 0.00 in0.0 mm
08:18 AM 62.3°F16.8°C 52.0°F11.1°C 69% 2.3 mph WSW3.7 kmh WSW 2.9 mph4.7 kmh 30.01 in1016.3 mb 0.00 in0.0 mm 0.00 in/hr0.0 mm/hr 0.00 in0.0 mm
08:13 AM 62.3°F16.8°C 52.0°F11.1°C 69% 1.8 mph WSW2.9 kmh WSW 2.5 mph4.0 kmh 30.01 in1016.3 mb 0.00 in0.0 mm 0.00 in/hr0.0 mm/hr 0.00 in0.0 mm
08:08 AM 62.5°F16.9°C 51.8°F11.0°C 68% 1.5 mph WNW2.4 kmh WNW 1.6 mph2.6 kmh 30.01 in1016.3 mb 0.00 in0.0 mm 0.00 in/hr0.0 mm/hr 0.00 in0.0 mm
08:03 AM 62.6°F17.0°C 51.9°F11.1°C 68% 0.7 mph NW1.1 kmh NW 1.1 mph1.8 kmh 30.01 in1016.3 mb 0.00 in0.0 mm 0.00 in/hr0.0 mm/hr 0.00 in0.0 mm
07:58 AM 63.0°F17.2°C 52.3°F11.3°C 68% 0.9 mph 1.4 kmh 2.0 mph3.2 kmh 30.00 in1015.9 mb 0.00 in0.0 mm 0.00 in/hr0.0 mm/hr 0.00 in0.0 mm
07:53 AM 63.0°F17.2°C 51.8°F11.0°C 67% 1.6 mph W2.6 kmh W 2.0 mph3.2 kmh 30.00 in1015.9 mb 0.00 in0.0 mm 0.00 in/hr0.0 mm/hr 0.00 in0.0 mm
07:48 AM 63.2°F17.3°C 52.0°F11.1°C 67% 1.1 mph W1.8 kmh W 2.2 mph3.5 kmh 30.00 in1015.9 mb 0.00 in0.0 mm 0.00 in/hr0.0 mm/hr 0.00 in0.0 mm
07:43 AM 63.4°F17.4°C 52.2°F11.2°C 67% 0.9 mph NW1.4 kmh NW 2.2 mph3.5 kmh 30.00 in1015.9 mb 0.00 in0.0 mm 0.00 in/hr0.0 mm/hr 0.00 in0.0 mm
07:38 AM 63.7°F17.6°C 52.6°F11.4°C 67% 0.3 mph 0.5 kmh 1.6 mph2.6 kmh 29.99 in1015.6 mb 0.00 in0.0 mm 0.00 in/hr0.0 mm/hr 0.00 in0.0 mm
07:33 AM 63.7°F17.6°C 52.6°F11.4°C 67% 0.9 mph NW1.4 kmh NW 1.6 mph2.6 kmh 29.99 in1015.6 mb 0.00 in0.0 mm 0.00 in/hr0.0 mm/hr 0.00 in0.0 mm
07:28 AM 64.1°F17.8°C 52.9°F11.6°C 67% 1.6 mph W2.6 kmh W 1.6 mph2.6 kmh 29.99 in1015.6 mb 0.00 in0.0 mm 0.00 in/hr0.0 mm/hr 0.00 in0.0 mm
07:23 AM 64.1°F17.8°C 52.9°F11.6°C 67% 0.9 mph NW1.4 kmh NW 1.6 mph2.6 kmh 29.99 in1015.6 mb 0.00 in0.0 mm 0.00 in/hr0.0 mm/hr 0.00 in0.0 mm
07:18 AM 64.1°F17.8°C 52.9°F11.6°C 67% 0.9 mph 1.4 kmh 1.6 mph2.6 kmh 29.99 in1015.6 mb 0.00 in0.0 mm 0.00 in/hr0.0 mm/hr 0.00 in0.0 mm
07:13 AM 64.1°F17.8°C 52.9°F11.6°C 67% 1.0 mph NW1.6 kmh NW 2.0 mph3.2 kmh 29.99 in1015.6 mb 0.00 in0.0 mm 0.00 in/hr0.0 mm/hr 0.00 in0.0 mm
07:08 AM 64.1°F17.8°C 52.9°F11.6°C 67% 1.4 mph NNE2.3 kmh NNE 2.0 mph3.2 kmh 29.99 in1015.6 mb 0.00 in0.0 mm 0.00 in/hr0.0 mm/hr 0.00 in0.0 mm
07:03 AM 64.1°F17.8°C 52.9°F11.6°C 67% 0.7 mph NNW1.1 kmh NNW 2.5 mph4.0 kmh 29.98 in1015.2 mb 0.00 in0.0 mm 0.00 in/hr0.0 mm/hr 0.00 in0.0 mm
06:58 AM 64.3°F17.9°C 53.1°F11.7°C 67% 1.5 mph 2.4 kmh 3.8 mph6.1 kmh 29.98 in1015.2 mb 0.00 in0.0 mm 0.00 in/hr0.0 mm/hr 0.00 in0.0 mm
06:53 AM 64.1°F17.8°C 52.9°F11.6°C 67% 2.3 mph 3.7 kmh 5.4 mph8.7 kmh 29.98 in1015.2 mb 0.00 in0.0 mm 0.00 in/hr0.0 mm/hr 0.00 in0.0 mm
06:48 AM 64.1°F17.8°C 52.9°F11.6°C 67% 4.4 mph 7.1 kmh 5.4 mph8.7 kmh 29.97 in1014.9 mb 0.00 in0.0 mm 0.00 in/hr0.0 mm/hr 0.00 in0.0 mm
06:43 AM 64.1°F17.8°C 52.9°F11.6°C 67% 3.2 mph N5.1 kmh N 5.4 mph8.7 kmh 29.97 in1014.9 mb 0.00 in0.0 mm 0.00 in/hr0.0 mm/hr 0.00 in0.0 mm
06:38 AM 64.1°F17.8°C 52.9°F11.6°C 67% 5.0 mph 8.0 kmh 5.4 mph8.7 kmh 29.97 in1014.9 mb 0.00 in0.0 mm 0.00 in/hr0.0 mm/hr 0.00 in0.0 mm
06:33 AM 64.3°F17.9°C 53.1°F11.7°C 67% 3.6 mph N5.8 kmh N 4.3 mph6.9 kmh 29.97 in1014.9 mb 0.00 in0.0 mm 0.00 in/hr0.0 mm/hr 0.00 in0.0 mm
06:28 AM 64.3°F17.9°C 53.1°F11.7°C 67% 2.6 mph 4.2 kmh 3.4 mph5.5 kmh 29.97 in1014.9 mb 0.00 in0.0 mm 0.00 in/hr0.0 mm/hr 0.00 in0.0 mm
06:23 AM 64.3°F17.9°C 53.1°F11.7°C 67% 2.0 mph N3.2 kmh N 4.0 mph6.4 kmh 29.97 in1014.9 mb 0.00 in0.0 mm 0.00 in/hr0.0 mm/hr 0.00 in0.0 mm
06:18 AM 64.4°F18.0°C 53.3°F11.8°C 67% 2.7 mph N4.3 kmh N 4.0 mph6.4 kmh 29.97 in1014.9 mb 0.00 in0.0 mm 0.00 in/hr0.0 mm/hr 0.00 in0.0 mm
06:13 AM 64.4°F18.0°C 53.3°F11.8°C 67% 2.3 mph N3.7 kmh N 3.4 mph5.5 kmh 29.97 in1014.9 mb 0.00 in0.0 mm 0.00 in/hr0.0 mm/hr 0.00 in0.0 mm
06:08 AM 64.4°F18.0°C 53.3°F11.8°C 67% 2.4 mph 3.9 kmh 5.4 mph8.7 kmh 29.97 in1014.9 mb 0.00 in0.0 mm 0.00 in/hr0.0 mm/hr 0.00 in0.0 mm
06:03 AM 64.4°F18.0°C 53.3°F11.8°C 67% 2.8 mph N4.5 kmh N 5.4 mph8.7 kmh 29.97 in1014.9 mb 0.00 in0.0 mm 0.00 in/hr0.0 mm/hr 0.00 in0.0 mm
05:58 AM 64.4°F18.0°C 53.3°F11.8°C 67% 2.2 mph N3.5 kmh N 3.4 mph5.5 kmh 29.97 in1014.9 mb 0.00 in0.0 mm 0.00 in/hr0.0 mm/hr 0.00 in0.0 mm
05:53 AM 64.6°F18.1°C 53.4°F11.9°C 67% 1.5 mph 2.4 kmh 3.1 mph5.0 kmh 29.97 in1014.9 mb 0.00 in0.0 mm 0.00 in/hr0.0 mm/hr 0.00 in0.0 mm
05:48 AM 64.6°F18.1°C 53.4°F11.9°C 67% 0.8 mph NNW1.3 kmh NNW 3.1 mph5.0 kmh 29.97 in1014.9 mb 0.00 in0.0 mm 0.00 in/hr0.0 mm/hr 0.00 in0.0 mm
05:43 AM 64.6°F18.1°C 53.4°F11.9°C 67% 0.8 mph N1.3 kmh N 3.1 mph5.0 kmh 29.97 in1014.9 mb 0.00 in0.0 mm 0.00 in/hr0.0 mm/hr 0.00 in0.0 mm
05:38 AM 64.6°F18.1°C 53.4°F11.9°C 67% 3.1 mph 5.0 kmh 3.1 mph5.0 kmh 29.97 in1014.9 mb 0.00 in0.0 mm 0.00 in/hr0.0 mm/hr 0.00 in0.0 mm
05:33 AM 64.6°F18.1°C 53.4°F11.9°C 67% 1.4 mph 2.3 kmh 3.6 mph5.8 kmh 29.97 in1014.9 mb 0.00 in0.0 mm 0.00 in/hr0.0 mm/hr 0.00 in0.0 mm
05:28 AM 64.8°F18.2°C 53.6°F12.0°C 67% 1.4 mph N2.3 kmh N 3.6 mph5.8 kmh 29.97 in1014.9 mb 0.00 in0.0 mm 0.00 in/hr0.0 mm/hr 0.00 in0.0 mm
05:23 AM 64.8°F18.2°C 53.6°F12.0°C 67% 0.8 mph 1.3 kmh 2.5 mph4.0 kmh 29.97 in1014.9 mb 0.00 in0.0 mm 0.00 in/hr0.0 mm/hr 0.00 in0.0 mm
05:18 AM 64.8°F18.2°C 53.6°F12.0°C 67% 0.6 mph 1.0 kmh 3.1 mph5.0 kmh 29.97 in1014.9 mb 0.00 in0.0 mm 0.00 in/hr0.0 mm/hr 0.00 in0.0 mm
05:13 AM 64.8°F18.2°C 53.6°F12.0°C 67% 0.9 mph N1.4 kmh N 3.1 mph5.0 kmh 29.96 in1014.6 mb 0.00 in0.0 mm 0.00 in/hr0.0 mm/hr 0.00 in0.0 mm
05:08 AM 64.8°F18.2°C 53.6°F12.0°C 67% 0.4 mph N0.6 kmh N 2.9 mph4.7 kmh 29.96 in1014.6 mb 0.00 in0.0 mm 0.00 in/hr0.0 mm/hr 0.00 in0.0 mm
05:03 AM 64.6°F18.1°C 53.4°F11.9°C 67% 1.4 mph N2.3 kmh N 3.4 mph5.5 kmh 29.96 in1014.6 mb 0.00 in0.0 mm 0.00 in/hr0.0 mm/hr 0.00 in0.0 mm
04:58 AM 64.4°F18.0°C 53.3°F11.8°C 67% 2.9 mph NNE4.7 kmh NNE 3.4 mph5.5 kmh 29.96 in1014.6 mb 0.00 in0.0 mm 0.00 in/hr0.0 mm/hr 0.00 in0.0 mm
04:53 AM 64.4°F18.0°C 53.3°F11.8°C 67% 3.1 mph 5.0 kmh 4.0 mph6.4 kmh 29.96 in1014.6 mb 0.00 in0.0 mm 0.00 in/hr0.0 mm/hr 0.00 in0.0 mm
04:48 AM 64.4°F18.0°C 53.3°F11.8°C 67% 2.6 mph 4.2 kmh 4.0 mph6.4 kmh 29.95 in1014.2 mb 0.00 in0.0 mm 0.00 in/hr0.0 mm/hr 0.00 in0.0 mm
04:43 AM 64.3°F17.9°C 53.1°F11.7°C 67% 1.9 mph N3.1 kmh N 3.4 mph5.5 kmh 29.95 in1014.2 mb 0.00 in0.0 mm 0.00 in/hr0.0 mm/hr 0.00 in0.0 mm
04:38 AM 64.1°F17.8°C 52.9°F11.6°C 67% 2.7 mph N4.3 kmh N 4.7 mph7.6 kmh 29.95 in1014.2 mb 0.00 in0.0 mm 0.00 in/hr0.0 mm/hr 0.00 in0.0 mm
04:33 AM 64.1°F17.8°C 52.9°F11.6°C 67% 2.2 mph N3.5 kmh N 4.7 mph7.6 kmh 29.95 in1014.2 mb 0.00 in0.0 mm 0.00 in/hr0.0 mm/hr 0.00 in0.0 mm
04:28 AM 63.9°F17.7°C 52.3°F11.3°C 66% 3.8 mph N6.1 kmh N 4.7 mph7.6 kmh 29.95 in1014.2 mb 0.00 in0.0 mm 0.00 in/hr0.0 mm/hr 0.00 in0.0 mm
04:23 AM 63.7°F17.6°C 52.1°F11.2°C 66% 3.3 mph 5.3 kmh 4.5 mph7.2 kmh 29.95 in1014.2 mb 0.00 in0.0 mm 0.00 in/hr0.0 mm/hr 0.00 in0.0 mm
04:18 AM 63.7°F17.6°C 51.7°F10.9°C 65% 1.9 mph 3.1 kmh 2.2 mph3.5 kmh 29.95 in1014.2 mb 0.00 in0.0 mm 0.00 in/hr0.0 mm/hr 0.00 in0.0 mm
04:13 AM 63.9°F17.7°C 51.8°F11.0°C 65% 1.1 mph 1.8 kmh 1.1 mph1.8 kmh 29.95 in1014.2 mb 0.00 in0.0 mm 0.00 in/hr0.0 mm/hr 0.00 in0.0 mm
04:08 AM 64.1°F17.8°C 52.0°F11.1°C 65% 0.2 mph WSW0.3 kmh WSW 1.3 mph2.1 kmh 29.95 in1014.2 mb 0.00 in0.0 mm 0.00 in/hr0.0 mm/hr 0.00 in0.0 mm
04:03 AM 64.1°F17.8°C 52.0°F11.1°C 65% 0.9 mph WSW1.4 kmh WSW 2.5 mph4.0 kmh 29.96 in1014.6 mb 0.00 in0.0 mm 0.00 in/hr0.0 mm/hr 0.00 in0.0 mm
03:58 AM 64.3°F17.9°C 52.2°F11.2°C 65% 1.5 mph WSW2.4 kmh WSW 2.5 mph4.0 kmh 29.96 in1014.6 mb 0.00 in0.0 mm 0.00 in/hr0.0 mm/hr 0.00 in0.0 mm
03:53 AM 64.3°F17.9°C 52.2°F11.2°C 65% 1.7 mph WSW2.7 kmh WSW 2.5 mph4.0 kmh 29.96 in1014.6 mb 0.00 in0.0 mm 0.00 in/hr0.0 mm/hr 0.00 in0.0 mm
03:48 AM 64.4°F18.0°C 52.4°F11.3°C 65% 2.2 mph WSW3.5 kmh WSW 2.5 mph4.0 kmh 29.96 in1014.6 mb 0.00 in0.0 mm 0.00 in/hr0.0 mm/hr 0.00 in0.0 mm
03:43 AM 64.4°F18.0°C 52.4°F11.3°C 65% 1.9 mph WSW3.1 kmh WSW 2.2 mph3.5 kmh 29.96 in1014.6 mb 0.00 in0.0 mm 0.00 in/hr0.0 mm/hr 0.00 in0.0 mm
03:38 AM 64.6°F18.1°C 52.6°F11.4°C 65% 1.0 mph 1.6 kmh 1.1 mph1.8 kmh 29.96 in1014.6 mb 0.00 in0.0 mm 0.00 in/hr0.0 mm/hr 0.00 in0.0 mm
03:33 AM 64.6°F18.1°C 52.1°F11.2°C 64% 0.6 mph 1.0 kmh 1.1 mph1.8 kmh 29.96 in1014.6 mb 0.00 in0.0 mm 0.00 in/hr0.0 mm/hr 0.00 in0.0 mm
03:28 AM 64.6°F18.1°C 52.1°F11.2°C 64% 0.7 mph 1.1 kmh 1.1 mph1.8 kmh 29.96 in1014.6 mb 0.00 in0.0 mm 0.00 in/hr0.0 mm/hr 0.00 in0.0 mm
03:23 AM 64.6°F18.1°C 52.1°F11.2°C 64% 0.6 mph 1.0 kmh 0.7 mph1.1 kmh 29.96 in1014.6 mb 0.00 in0.0 mm 0.00 in/hr0.0 mm/hr 0.00 in0.0 mm
03:18 AM 64.6°F18.1°C 52.1°F11.2°C 64% Calm Calm 1.1 mph1.8 kmh 29.97 in1014.9 mb 0.00 in0.0 mm 0.00 in/hr0.0 mm/hr 0.00 in0.0 mm
03:13 AM 64.6°F18.1°C 52.1°F11.2°C 64% 0.5 mph 0.8 kmh 1.1 mph1.8 kmh 29.97 in1014.9 mb 0.00 in0.0 mm 0.00 in/hr0.0 mm/hr 0.00 in0.0 mm
03:08 AM 64.6°F18.1°C 51.7°F10.9°C 63% 0.9 mph 1.4 kmh 1.3 mph2.1 kmh 29.97 in1014.9 mb 0.00 in0.0 mm 0.00 in/hr0.0 mm/hr 0.00 in0.0 mm
03:03 AM 64.4°F18.0°C 51.5°F10.8°C 63% 0.4 mph 0.6 kmh 1.3 mph2.1 kmh 29.96 in1014.6 mb 0.00 in0.0 mm 0.00 in/hr0.0 mm/hr 0.00 in0.0 mm
02:58 AM 64.6°F18.1°C 51.3°F10.7°C 62% 0.7 mph 1.1 kmh 1.1 mph1.8 kmh 29.96 in1014.6 mb 0.00 in0.0 mm 0.00 in/hr0.0 mm/hr 0.00 in0.0 mm
02:53 AM 64.6°F18.1°C 51.3°F10.7°C 62% 0.6 mph 1.0 kmh 1.1 mph1.8 kmh 29.96 in1014.6 mb 0.00 in0.0 mm 0.00 in/hr0.0 mm/hr 0.00 in0.0 mm
02:48 AM 64.8°F18.2°C 51.0°F10.6°C 61% 0.8 mph 1.3 kmh 1.1 mph1.8 kmh 29.97 in1014.9 mb 0.00 in0.0 mm 0.00 in/hr0.0 mm/hr 0.00 in0.0 mm
02:43 AM 64.8°F18.2°C 51.0°F10.6°C 61% 0.9 mph N1.4 kmh N 1.1 mph1.8 kmh 29.97 in1014.9 mb 0.00 in0.0 mm 0.00 in/hr0.0 mm/hr 0.00 in0.0 mm
02:38 AM 64.8°F18.2°C 51.0°F10.6°C 61% 0.8 mph N1.3 kmh N 1.1 mph1.8 kmh 29.97 in1014.9 mb 0.00 in0.0 mm 0.00 in/hr0.0 mm/hr 0.00 in0.0 mm
02:33 AM 65.2°F18.4°C 50.9°F10.5°C 60% 0.7 mph NNW1.1 kmh NNW 1.1 mph1.8 kmh 29.97 in1014.9 mb 0.00 in0.0 mm 0.00 in/hr0.0 mm/hr 0.00 in0.0 mm
02:28 AM 65.2°F18.4°C 50.9°F10.5°C 60% 0.5 mph 0.8 kmh 1.1 mph1.8 kmh 29.97 in1014.9 mb 0.00 in0.0 mm 0.00 in/hr0.0 mm/hr 0.00 in0.0 mm
02:23 AM 65.3°F18.5°C 51.1°F10.6°C 60% 0.9 mph 1.4 kmh 1.3 mph2.1 kmh 29.97 in1014.9 mb 0.00 in0.0 mm 0.00 in/hr0.0 mm/hr 0.00 in0.0 mm
02:18 AM 65.3°F18.5°C 50.7°F10.4°C 59% 0.7 mph 1.1 kmh 1.3 mph2.1 kmh 29.97 in1014.9 mb 0.00 in0.0 mm 0.00 in/hr0.0 mm/hr 0.00 in0.0 mm
02:13 AM 65.5°F18.6°C 50.9°F10.5°C 59% 0.7 mph 1.1 kmh 1.3 mph2.1 kmh 29.97 in1014.9 mb 0.00 in0.0 mm 0.00 in/hr0.0 mm/hr 0.00 in0.0 mm
02:08 AM 65.7°F18.7°C 51.0°F10.6°C 59% 0.9 mph 1.4 kmh 1.6 mph2.6 kmh 29.97 in1014.9 mb 0.00 in0.0 mm 0.00 in/hr0.0 mm/hr 0.00 in0.0 mm
02:03 AM 65.9°F18.8°C 51.2°F10.7°C 59% 0.9 mph 1.4 kmh 1.6 mph2.6 kmh 29.97 in1014.9 mb 0.00 in0.0 mm 0.00 in/hr0.0 mm/hr 0.00 in0.0 mm
01:58 AM 65.9°F18.8°C 50.7°F10.4°C 58% 1.1 mph 1.8 kmh 2.0 mph3.2 kmh 29.97 in1014.9 mb 0.00 in0.0 mm 0.00 in/hr0.0 mm/hr 0.00 in0.0 mm
01:53 AM 66.2°F19.0°C 51.0°F10.6°C 58% 1.7 mph 2.7 kmh 2.0 mph3.2 kmh 29.97 in1014.9 mb 0.00 in0.0 mm 0.00 in/hr0.0 mm/hr 0.00 in0.0 mm
01:48 AM 66.2°F19.0°C 51.0°F10.6°C 58% 1.8 mph 2.9 kmh 2.2 mph3.5 kmh 29.97 in1014.9 mb 0.00 in0.0 mm 0.00 in/hr0.0 mm/hr 0.00 in0.0 mm
01:43 AM 66.2°F19.0°C 51.0°F10.6°C 58% 1.5 mph 2.4 kmh 2.2 mph3.5 kmh 29.97 in1014.9 mb 0.00 in0.0 mm 0.00 in/hr0.0 mm/hr 0.00 in0.0 mm
01:38 AM 66.4°F19.1°C 50.8°F10.4°C 57% 0.7 mph 1.1 kmh 1.8 mph2.9 kmh 29.97 in1014.9 mb 0.00 in0.0 mm 0.00 in/hr0.0 mm/hr 0.00 in0.0 mm
01:33 AM 66.6°F19.2°C 50.9°F10.5°C 57% 1.1 mph 1.8 kmh 1.8 mph2.9 kmh 29.97 in1014.9 mb 0.00 in0.0 mm 0.00 in/hr0.0 mm/hr 0.00 in0.0 mm
01:28 AM 66.6°F19.2°C 50.9°F10.5°C 57% 0.7 mph 1.1 kmh 3.1 mph5.0 kmh 29.97 in1014.9 mb 0.00 in0.0 mm 0.00 in/hr0.0 mm/hr 0.00 in0.0 mm
01:23 AM 66.6°F19.2°C 50.9°F10.5°C 57% 1.6 mph 2.6 kmh 3.6 mph5.8 kmh 29.97 in1014.9 mb 0.00 in0.0 mm 0.00 in/hr0.0 mm/hr 0.00 in0.0 mm
01:18 AM 66.8°F19.3°C 51.0°F10.6°C 57% 2.6 mph N4.2 kmh N 4.0 mph6.4 kmh 29.97 in1014.9 mb 0.00 in0.0 mm 0.00 in/hr0.0 mm/hr 0.00 in0.0 mm
01:13 AM 66.8°F19.3°C 51.0°F10.6°C 57% 3.4 mph N5.5 kmh N 4.0 mph6.4 kmh 29.97 in1014.9 mb 0.00 in0.0 mm 0.00 in/hr0.0 mm/hr 0.00 in0.0 mm
01:08 AM 67.0°F19.4°C 50.8°F10.4°C 56% 2.5 mph 4.0 kmh 4.0 mph6.4 kmh 29.97 in1014.9 mb 0.00 in0.0 mm 0.00 in/hr0.0 mm/hr 0.00 in0.0 mm
01:03 AM 67.0°F19.4°C 50.8°F10.4°C 56% 3.1 mph N5.0 kmh N 4.0 mph6.4 kmh 29.97 in1014.9 mb 0.00 in0.0 mm 0.00 in/hr0.0 mm/hr 0.00 in0.0 mm
12:58 AM 67.1°F19.5°C 50.9°F10.5°C 56% 2.5 mph 4.0 kmh 3.4 mph5.5 kmh 29.97 in1014.9 mb 0.00 in0.0 mm 0.00 in/hr0.0 mm/hr 0.00 in0.0 mm
12:53 AM 67.1°F19.5°C 50.9°F10.5°C 56% 2.9 mph NNE4.7 kmh NNE 3.4 mph5.5 kmh 29.97 in1014.9 mb 0.00 in0.0 mm 0.00 in/hr0.0 mm/hr 0.00 in0.0 mm
12:48 AM 67.3°F19.6°C 51.0°F10.6°C 56% 1.6 mph N2.6 kmh N 2.5 mph4.0 kmh 29.97 in1014.9 mb 0.00 in0.0 mm 0.00 in/hr0.0 mm/hr 0.00 in0.0 mm
12:43 AM 67.3°F19.6°C 51.0°F10.6°C 56% 1.4 mph NNE2.3 kmh NNE 3.4 mph5.5 kmh 29.97 in1014.9 mb 0.00 in0.0 mm 0.00 in/hr0.0 mm/hr 0.00 in0.0 mm
12:38 AM 67.5°F19.7°C 50.8°F10.4°C 55% 2.1 mph NE3.4 kmh NE 3.4 mph5.5 kmh 29.97 in1014.9 mb 0.00 in0.0 mm 0.00 in/hr0.0 mm/hr 0.00 in0.0 mm
12:33 AM 67.5°F19.7°C 50.8°F10.4°C 55% 1.7 mph NNE2.7 kmh NNE 2.9 mph4.7 kmh 29.97 in1014.9 mb 0.00 in0.0 mm 0.00 in/hr0.0 mm/hr 0.00 in0.0 mm
12:28 AM 67.7°F19.8°C 50.9°F10.5°C 55% 2.0 mph NE3.2 kmh NE 3.6 mph5.8 kmh 29.97 in1014.9 mb 0.00 in0.0 mm 0.00 in/hr0.0 mm/hr 0.00 in0.0 mm
12:23 AM 67.7°F19.8°C 50.9°F10.5°C 55% 2.7 mph N4.3 kmh N 4.3 mph6.9 kmh 29.97 in1014.9 mb 0.00 in0.0 mm 0.00 in/hr0.0 mm/hr 0.00 in0.0 mm
12:18 AM 67.7°F19.8°C 50.9°F10.5°C 55% 2.6 mph N4.2 kmh N 4.3 mph6.9 kmh 29.97 in1014.9 mb 0.00 in0.0 mm 0.00 in/hr0.0 mm/hr 0.00 in0.0 mm
12:13 AM 67.7°F19.8°C 50.4°F10.2°C 54% 2.6 mph NNE4.2 kmh NNE 4.0 mph6.4 kmh 29.97 in1014.9 mb 0.00 in0.0 mm 0.00 in/hr0.0 mm/hr 0.00 in0.0 mm
12:08 AM 67.9°F19.9°C 50.6°F10.3°C 54% 2.9 mph NNE4.7 kmh NNE 4.0 mph6.4 kmh 29.97 in1014.9 mb 0.00 in0.0 mm 0.00 in/hr0.0 mm/hr 0.00 in0.0 mm
12:03 AM 67.9°F19.9°C 50.6°F10.3°C 54% 3.1 mph NE5.0 kmh NE 4.7 mph7.6 kmh 29.97 in1014.9 mb 0.00 in0.0 mm 0.00 in/hr0.0 mm/hr 0.00 in0.0 mm